Detailed Flight Report of Nuri Burak ERKAL ;
Number CXD079 
Departure Aerodrome LTFD 
Arrival Aerodrome LTCI

Map generated by the Great Circle Mapper - copyright © Karl L. Swartz.

Pilot In Command CXD079 : Nuri Burak Erkal
Aircraft B773 / TC-NZL
Date Of Flight 2020-06-24
Departure Time 13:38 UTC
Arrival Time 15:21 UTC
Block Time 01:43
Distance 771 Nm.
Used Fuel 27,321 Lbs.
   
Detailed Flight Log [2020/06/24 13:45:00]
Flight IATA:C001
Pilot Number:079
Company ICAO:CXD
Aircraft Type:B773
Aircraft Registration:TC-NZL
Departing Airport: LTFD
Destination Airport: LTCI
Alternate Airport:LTCG
Online: VATSIM
Route:DUGLA UN131 KULAR UT54 NESET UR32 HAY UW705 GEM UG8 EZS UG81 BEYAZ
Flight Level:FL390
No pause
13:45 Zero fuel Weight: 481681 Lbs, Fuel Weight: 50348 Lbs
13:45 VATSIM:LTFD 232050Z 07003KT 9999 FEW035 19/17 Q1013
13:45 VATSIM:LTCI 232050Z 00000KT CAVOK 15/05 Q1019 NOSIG
13:46 Parking Brakes off
13:51 VR= 164 Knots
13:51 V2= 170 Knots
13:51 Take-off
13:51 Take off Weight: 531028 Lbs
13:51 Wind: 069º @ 003 Knots Heading: 053º
13:51 POS N39º 33´ 12´´ E027º 00´ 43´´
13:51 N11 92 N12 92
13:51 Flaps:15º at 172 Knots
13:51 Gear Up: 177 Knots
13:52 Flaps:5º at 179 Knots
13:52 Flaps:1º at 187 Knots
13:52 Flaps:Up at 205 Knots
13:56 Gear Down: 318 Knots
13:57
Gear Up: 319 Knots
14:06 Wind:223º@072 Knots Heading: 096º Ground Speed: 534 Knots Altitude 33661 ft
14:10 TOC
14:10 Fuel Weight: 38978 Lb
14:21 Wind:225º@102 Knots Heading: 100º Ground Speed: 551 Knots Altitude 38996 ft
14:36 Wind:228º@090 Knots Heading: 103º Ground Speed: 542 Knots Altitude 39061 ft
14:51 Wind:234º@076 Knots Heading: 106º Ground Speed: 536 Knots Altitude 38999 ft
15:04 TOD
15:04 Fuel Weight: 25827 Lb
15:06 Wind:244º@064 Knots Heading: 097º Ground Speed: 535 Knots Altitude 36427 ft
15:21 Wind:153º@004 Knots Heading: 109º Ground Speed: 263 Knots Altitude 10675 ft
15:24 Flaps:1º at 196 Knots
15:24 Flaps:5º at 191 Knots
15:24 Flaps:15º at 190 Knots
15:25 Gear Down: 191 Knots
15:25 Flaps:30º at 191 Knots
15:25 Flaps:35º at 182 Knots
15:25 Flaps:Full at 175 Knots
15:27 TouchDown:Rate -214 ft/min Speed: 127 Knots
15:27 VATSIM:LTCI 232250Z 00000
KT CAVOK 14/04 Q1019 NOSIG
15:27 Land
15:27 Wind:000º@000 Knots
15:27 Heading: 036º
15:27 Flight Duration: 01:36
15:27 Landing Weight: 504822 Lbs
15:27 POS N38º 28´ 08´´ E043º 19´ 59´´
15:29 Parking brakes on
15:29 Block to Block Duration: 01:43
15:29 Final Fuel: 23026 Lbls
15:29 Spent Fuel: 27321 Lbls
15:29 Flight Length: 771 NM
15:29 TOD Land Length: 145 NM

Text Link of Flight Log http://www.candanair.net/acars/logs/CXD07920200624134500.txt
   

[ Back ]